createdAt,value
2023-03-28T00:01:06.460Z,89903.19
2023-03-28T00:03:36.460Z,89905.81
2023-03-28T00:06:05.581Z,89897.19
2023-03-28T00:08:32.582Z,89897.19
2023-03-28T00:11:22.431Z,89904.97
2023-03-28T00:13:53.644Z,89909.06
2023-03-28T00:16:20.269Z,89912.09
2023-03-28T00:18:46.960Z,89906.56
2023-03-28T00:21:23.499Z,89898.00
2023-03-28T00:23:52.688Z,89896.94
2023-03-28T00:26:20.436Z,89894.31
2023-03-28T00:28:47.647Z,89896.50
2023-03-28T00:31:14.889Z,89897.59
2023-03-28T00:33:42.126Z,89898.69
2023-03-28T00:36:10.418Z,89899.41
2023-03-28T00:38:38.645Z,89903.91
2023-03-28T00:41:05.949Z,89895.03
2023-03-28T00:43:53.172Z,89887.22
2023-03-28T00:46:36.560Z,89887.50
2023-03-28T00:49:05.898Z,89896.03
2023-03-28T00:51:35.941Z,89892.69
2023-03-28T00:54:03.113Z,89891.53
2023-03-28T00:56:32.237Z,89889.63
2023-03-28T00:59:01.931Z,89890.44
2023-03-28T01:01:28.506Z,89893.50
2023-03-28T01:04:03.228Z,89891.31
2023-03-28T01:06:34.862Z,89891.31
2023-03-28T01:09:04.650Z,89890.50
2023-03-28T01:11:32.401Z,89886.06
2023-03-28T01:14:00.732Z,89896.50
2023-03-28T01:16:30.851Z,89887.59
2023-03-28T01:19:02.150Z,89886.88
2023-03-28T01:21:31.916Z,89881.69
2023-03-28T01:24:11.284Z,89878.34
2023-03-28T01:26:48.033Z,89887.63
2023-03-28T01:29:24.509Z,89878.72
2023-03-28T01:31:51.048Z,89885.38
2023-03-28T01:34:36.250Z,89884.94
2023-03-28T01:37:05.777Z,89897.22
2023-03-28T01:39:46.944Z,89900.16
2023-03-28T01:42:25.879Z,89895.69
2023-03-28T01:44:52.398Z,89897.97
2023-03-28T01:47:38.671Z,89895.41
2023-03-28T01:50:11.273Z,89900.22
2023-03-28T01:52:47.262Z,89894.94
2023-03-28T01:55:30.209Z,89898.25
2023-03-28T01:58:06.775Z,89884.47
2023-03-28T02:00:38.048Z,89888.91
2023-03-28T02:03:11.831Z,89891.50
2023-03-28T02:05:39.340Z,89888.13
2023-03-28T02:08:10.724Z,89887.78
2023-03-28T02:10:39.477Z,89894.81
2023-03-28T02:13:09.580Z,89890.69
2023-03-28T02:15:36.125Z,89892.19
2023-03-28T02:18:06.997Z,89888.88
2023-03-28T02:20:35.104Z,89889.22
2023-03-28T02:23:01.636Z,89888.03
2023-03-28T02:25:29.493Z,89890.25
2023-03-28T02:27:57.626Z,89892.09
2023-03-28T02:30:24.300Z,89893.19
2023-03-28T02:32:51.674Z,89892.16
2023-03-28T02:35:24.239Z,89894.41
2023-03-28T02:38:01.722Z,89896.66
2023-03-28T02:40:31.467Z,89901.47
2023-03-28T02:42:59.590Z,89888.03
2023-03-28T02:45:37.767Z,89889.09
2023-03-28T02:48:07.529Z,89896.91
2023-03-28T02:50:36.450Z,89893.94
2023-03-28T02:53:15.789Z,89893.25
2023-03-28T02:56:06.034Z,89895.84
2023-03-28T02:58:40.247Z,89894.06
2023-03-28T03:01:07.059Z,89897.09
2023-03-28T03:03:36.506Z,89902.28
2023-03-28T03:06:05.976Z,89907.13
2023-03-28T03:08:32.942Z,89905.28
2023-03-28T03:10:59.729Z,89905.28
2023-03-28T03:13:26.718Z,89905.63
2023-03-28T03:15:56.370Z,89899.72
2023-03-28T03:18:23.322Z,89909.69
2023-03-28T03:20:50.456Z,89896.38
2023-03-28T03:23:17.655Z,89899.38
2023-03-28T03:25:45.277Z,89904.56
2023-03-28T03:28:12.083Z,89906.06
2023-03-28T03:30:38.670Z,89910.94
2023-03-28T03:33:05.966Z,89911.28
2023-03-28T03:35:35.670Z,89919.13
2023-03-28T03:38:03.864Z,89915.78
2023-03-28T03:40:30.448Z,89915.78
2023-03-28T03:42:57.010Z,89916.88
2023-03-28T03:45:23.581Z,89912.03
2023-03-28T03:47:50.277Z,89920.22
2023-03-28T03:50:16.899Z,89917.22
2023-03-28T03:52:43.485Z,89927.63
2023-03-28T03:55:10.198Z,89929.50
2023-03-28T03:57:36.912Z,89941.34
2023-03-28T04:00:11.379Z,89946.53
2023-03-28T04:02:38.842Z,89953.56
2023-03-28T04:05:07.213Z,89964.38
2023-03-28T04:07:33.727Z,89960.31
2023-03-28T04:10:00.494Z,89965.47
2023-03-28T04:12:27.072Z,89957.28
2023-03-28T04:14:53.620Z,89949.88
2023-03-28T04:17:21.500Z,89955.38
2023-03-28T04:19:49.757Z,89954.25
2023-03-28T04:22:18.331Z,89951.97
2023-03-28T04:24:45.907Z,89951.97
2023-03-28T04:27:12.430Z,89969.78
2023-03-28T04:29:39.447Z,89966.78
2023-03-28T04:32:06.719Z,89973.13
2023-03-28T04:34:33.995Z,89977.56
2023-03-28T04:37:02.117Z,89975.31
2023-03-28T04:39:33.935Z,89990.13
2023-03-28T04:42:02.119Z,89999.38
2023-03-28T04:44:32.500Z,90000.91
2023-03-28T04:47:09.159Z,90018.75
2023-03-28T04:49:35.682Z,90019.19
2023-03-28T04:52:02.274Z,90025.56
2023-03-28T04:54:29.010Z,90022.28
2023-03-28T04:56:55.761Z,90026.41
2023-03-28T04:59:22.282Z,90023.81
2023-03-28T05:01:51.729Z,90036.44
2023-03-28T05:04:19.070Z,90038.63
2023-03-28T05:06:46.438Z,90033.09
2023-03-28T05:09:13.685Z,90038.84
2023-03-28T05:11:40.772Z,90034.13
2023-03-28T05:14:07.383Z,90035.97
2023-03-28T05:16:34.396Z,90032.66
2023-03-28T05:19:01.673Z,90039.03
2023-03-28T05:21:28.596Z,90026.38
2023-03-28T05:23:55.697Z,90024.28
2023-03-28T05:26:22.294Z,90027.44
2023-03-28T05:28:48.957Z,90025.38
2023-03-28T05:31:17.492Z,90023.72
2023-03-28T05:33:44.186Z,90029.06
2023-03-28T05:36:11.086Z,90025.94
2023-03-28T05:38:37.704Z,90039.41
2023-03-28T05:41:04.544Z,90042.91
2023-03-28T05:43:31.136Z,90043.72
2023-03-28T05:45:57.817Z,90044.06
2023-03-28T05:48:24.408Z,90050.38
2023-03-28T05:50:51.156Z,90043.06
2023-03-28T05:53:17.849Z,90052.47
2023-03-28T05:55:44.375Z,90044.78
2023-03-28T05:58:10.860Z,90063.16
2023-03-28T06:00:37.534Z,90062.78
2023-03-28T06:03:07.476Z,90051.41
2023-03-28T06:05:34.562Z,90074.97
2023-03-28T06:08:01.872Z,90060.38
2023-03-28T06:10:28.431Z,90065.63
2023-03-28T06:12:55.411Z,90074.56
2023-03-28T06:15:22.052Z,90077.88
2023-03-28T06:17:51.886Z,90080.50
2023-03-28T06:20:18.499Z,90090.22
2023-03-28T06:22:45.013Z,90082.13
2023-03-28T06:25:11.527Z,90085.31
2023-03-28T06:27:38.135Z,90089.19
2023-03-28T06:30:05.151Z,90090.00
2023-03-28T06:32:31.907Z,90108.13
2023-03-28T06:34:58.543Z,90116.72
2023-03-28T06:37:25.238Z,90117.47
2023-03-28T06:39:53.187Z,90130.78
2023-03-28T06:42:20.328Z,90119.56
2023-03-28T06:44:46.913Z,90136.41
2023-03-28T06:47:13.493Z,90142.91
2023-03-28T06:49:40.579Z,90127.63
2023-03-28T06:52:08.047Z,90135.38
2023-03-28T06:54:34.700Z,90132.16
2023-03-28T06:57:01.311Z,90135.84
2023-03-28T06:59:27.892Z,90140.69
2023-03-28T07:01:54.515Z,90148.31
2023-03-28T07:04:21.342Z,90129.50
2023-03-28T07:06:48.964Z,90146.44
2023-03-28T07:09:16.012Z,90124.09
2023-03-28T07:11:42.532Z,90122.38
2023-03-28T07:14:09.178Z,90130.88
2023-03-28T07:16:36.031Z,90127.31
2023-03-28T07:19:02.622Z,90128.31
2023-03-28T07:21:29.184Z,90129.06
2023-03-28T07:23:55.869Z,90132.41
2023-03-28T07:26:22.360Z,90142.16
2023-03-28T07:28:49.553Z,90155.22
2023-03-28T07:31:16.870Z,90143.28
2023-03-28T07:33:43.498Z,90162.56
2023-03-28T07:36:11.777Z,90144.47
2023-03-28T07:38:38.475Z,90159.88
2023-03-28T07:41:05.538Z,90170.94
2023-03-28T07:43:32.177Z,90176.53
2023-03-28T07:46:02.509Z,90166.63
2023-03-28T07:48:29.365Z,90174.28
2023-03-28T07:50:55.916Z,90180.75
2023-03-28T07:53:22.406Z,90187.81
2023-03-28T07:55:55.058Z,90191.19
2023-03-28T07:58:22.038Z,90177.34
2023-03-28T08:01:03.560Z,90186.03
2023-03-28T08:03:30.224Z,90200.63
2023-03-28T08:05:57.808Z,90200.94
2023-03-28T08:08:24.377Z,90193.34
2023-03-28T08:10:51.532Z,90196.38
2023-03-28T08:13:21.003Z,90209.28
2023-03-28T08:15:53.686Z,90207.88
2023-03-28T08:18:21.643Z,90219.44
2023-03-28T08:20:48.514Z,90215.22
2023-03-28T08:23:15.346Z,90220.53
2023-03-28T08:25:42.464Z,90225.94
2023-03-28T08:28:09.813Z,90222.63
2023-03-28T08:30:36.427Z,90220.44
2023-03-28T08:33:04.732Z,90225.91
2023-03-28T08:35:31.797Z,90220.34
2023-03-28T08:37:59.434Z,90223.22
2023-03-28T08:40:28.165Z,90230.91
2023-03-28T08:43:06.444Z,90225.31
2023-03-28T08:45:42.132Z,90226.53
2023-03-28T08:48:11.604Z,90228.38
2023-03-28T08:50:53.589Z,90250.84
2023-03-28T08:53:30.537Z,90245.41
2023-03-28T08:55:58.094Z,90261.56
2023-03-28T08:58:27.158Z,90253.16
2023-03-28T09:00:53.978Z,90263.22
2023-03-28T09:03:22.996Z,90266.75
2023-03-28T09:05:50.156Z,90266.19
2023-03-28T09:08:24.476Z,90265.69
2023-03-28T09:11:09.149Z,90274.25
2023-03-28T09:13:47.910Z,90274.50
2023-03-28T09:16:23.513Z,90276.09
2023-03-28T09:19:11.320Z,90288.28
2023-03-28T09:21:37.842Z,90285.19
2023-03-28T09:24:17.441Z,90300.28
2023-03-28T09:26:47.666Z,90283.94
2023-03-28T09:29:16.355Z,90292.44
2023-03-28T09:31:48.142Z,90300.72
2023-03-28T09:34:23.332Z,90297.69
2023-03-28T09:39:30.275Z,90314.59
2023-03-28T09:42:00.513Z,90318.88
2023-03-28T09:44:30.677Z,90317.22
2023-03-28T09:46:59.766Z,90327.47
2023-03-28T09:49:26.703Z,90328.28
2023-03-28T09:51:54.921Z,90325.47
2023-03-28T09:54:28.804Z,90339.00
2023-03-28T09:57:00.092Z,90338.38
2023-03-28T09:59:30.526Z,90341.59
2023-03-28T10:01:57.843Z,90333.47
2023-03-28T10:04:27.259Z,90318.34
2023-03-28T10:06:54.887Z,90339.75
2023-03-28T10:09:23.300Z,90340.50
2023-03-28T10:11:57.583Z,90337.94
2023-03-28T10:14:43.255Z,90351.50
2023-03-28T10:17:18.038Z,90334.41
2023-03-28T10:19:45.637Z,90354.59
2023-03-28T10:22:14.252Z,90351.66
2023-03-28T10:24:41.263Z,90360.28
2023-03-28T10:27:19.002Z,90378.31
2023-03-28T10:29:46.304Z,90377.31
2023-03-28T10:32:24.973Z,90373.50
2023-03-28T10:35:02.226Z,90384.19
2023-03-28T10:37:30.657Z,90382.72
2023-03-28T10:40:16.385Z,90376.56
2023-03-28T10:42:45.007Z,90392.25
2023-03-28T10:45:30.432Z,90393.13
2023-03-28T10:47:59.173Z,90386.31
2023-03-28T10:50:31.072Z,90404.28
2023-03-28T10:53:10.839Z,90387.75
2023-03-28T10:55:40.672Z,90416.22
2023-03-28T10:58:13.363Z,90400.56
2023-03-28T11:00:46.683Z,90399.09
2023-03-28T11:03:31.893Z,90390.06
2023-03-28T11:06:09.942Z,90396.66
2023-03-28T11:09:00.375Z,90397.16
2023-03-28T11:11:27.333Z,90388.19
2023-03-28T11:14:02.949Z,90383.06
2023-03-28T11:16:38.601Z,90369.78
2023-03-28T11:19:16.364Z,90369.88
2023-03-28T11:22:11.242Z,90370.44
2023-03-28T11:24:46.929Z,90360.34
2023-03-28T11:27:33.671Z,90382.22
2023-03-28T11:30:12.087Z,90376.63
2023-03-28T11:32:43.331Z,90389.94
2023-03-28T11:35:27.262Z,90384.31
2023-03-28T11:38:11.742Z,90385.53
2023-03-28T11:40:50.906Z,90372.38
2023-03-28T11:43:25.545Z,90386.66
2023-03-28T11:45:53.551Z,90397.00
2023-03-28T11:48:33.571Z,90391.94
2023-03-28T11:51:06.624Z,90400.84
2023-03-28T11:53:40.055Z,90396.03
2023-03-28T11:56:06.972Z,90398.91
2023-03-28T11:58:36.268Z,90409.19
2023-03-28T12:01:06.345Z,90383.91
2023-03-28T12:03:34.452Z,90407.53
2023-03-28T12:06:10.363Z,90407.06
2023-03-28T12:08:51.942Z,90414.56
2023-03-28T12:11:25.686Z,90421.72
2023-03-28T12:14:09.012Z,90410.47
2023-03-28T12:16:43.028Z,90417.66
2023-03-28T12:19:15.069Z,90423.97
2023-03-28T12:21:47.191Z,90416.16
2023-03-28T12:24:25.763Z,90416.16
2023-03-28T12:26:54.764Z,90431.84
2023-03-28T12:29:22.740Z,90433.38
2023-03-28T12:31:53.364Z,90433.03
2023-03-28T12:34:32.066Z,90429.97
2023-03-28T12:37:11.983Z,90428.25
2023-03-28T12:39:54.881Z,90434.72
2023-03-28T12:42:23.624Z,90440.00
2023-03-28T12:45:01.081Z,90428.84
2023-03-28T12:47:36.681Z,90450.25
2023-03-28T12:50:24.143Z,90439.78
2023-03-28T12:52:52.312Z,90442.00
2023-03-28T12:55:24.929Z,90430.19
2023-03-28T12:57:53.398Z,90434.06
2023-03-28T13:00:32.207Z,90444.47
2023-03-28T13:03:07.877Z,90448.28
2023-03-28T13:05:46.458Z,90449.16
2023-03-28T13:08:21.740Z,90442.91
2023-03-28T13:11:06.643Z,90454.97
2023-03-28T13:13:45.354Z,90470.41
2023-03-28T13:16:17.160Z,90454.97
2023-03-28T13:18:48.018Z,90465.72
2023-03-28T13:21:34.546Z,90463.03
2023-03-28T13:24:01.148Z,90464.59
2023-03-28T13:26:47.615Z,90461.81
2023-03-28T13:29:14.222Z,90469.81
2023-03-28T13:31:42.851Z,90472.75
2023-03-28T13:34:17.996Z,90463.38
2023-03-28T13:36:50.945Z,90469.00
2023-03-28T13:39:25.238Z,90473.78
2023-03-28T13:41:52.382Z,90483.09
2023-03-28T13:44:20.808Z,90476.69
2023-03-28T13:46:48.780Z,90472.00
2023-03-28T13:49:19.901Z,90480.06
2023-03-28T13:51:46.436Z,90487.31
2023-03-28T13:54:13.606Z,90480.50
2023-03-28T13:56:44.405Z,90484.88
2023-03-28T13:59:18.283Z,90490.66
2023-03-28T14:01:47.332Z,90483.69
2023-03-28T14:04:21.834Z,90498.16
2023-03-28T14:06:49.351Z,90499.91
2023-03-28T14:09:19.790Z,90501.56
2023-03-28T14:11:46.897Z,90499.47
2023-03-28T14:14:13.446Z,90509.63
2023-03-28T14:16:42.069Z,90501.75
2023-03-28T14:19:09.550Z,90505.16
2023-03-28T14:21:36.166Z,90508.72
2023-03-28T14:24:04.750Z,90514.75
2023-03-28T14:26:34.148Z,90509.88
2023-03-28T14:29:03.092Z,90483.72
2023-03-28T14:31:35.008Z,90515.75
2023-03-28T14:34:13.327Z,90516.50
2023-03-28T14:36:58.748Z,90533.84
2023-03-28T14:39:26.757Z,90536.66
2023-03-28T14:41:54.048Z,90531.78
2023-03-28T14:44:21.497Z,90536.03
2023-03-28T14:46:49.610Z,90544.41
2023-03-28T14:49:21.496Z,90566.84
2023-03-28T14:51:53.909Z,90552.91
2023-03-28T14:54:37.778Z,90550.06
2023-03-28T14:57:05.293Z,90560.84
2023-03-28T14:59:37.001Z,90575.88
2023-03-28T15:02:04.772Z,90581.16
2023-03-28T15:04:32.225Z,90583.00
2023-03-28T15:06:59.019Z,90581.75
2023-03-28T15:09:30.239Z,90587.63
2023-03-28T15:11:57.379Z,90589.38
2023-03-28T15:14:30.165Z,90583.75
2023-03-28T15:16:57.179Z,90602.91
2023-03-28T15:19:32.186Z,90593.97
2023-03-28T15:22:04.446Z,90608.94
2023-03-28T15:24:31.539Z,90601.56
2023-03-28T15:27:01.602Z,90622.16
2023-03-28T15:29:54.744Z,90625.75
2023-03-28T15:32:21.463Z,90631.84
2023-03-28T15:34:54.498Z,90638.38
2023-03-28T15:37:22.737Z,90641.22
2023-03-28T15:39:53.172Z,90652.22
2023-03-28T15:42:19.822Z,90665.28
2023-03-28T15:44:52.320Z,90639.38
2023-03-28T15:47:22.526Z,90654.88
2023-03-28T15:49:49.251Z,90676.56
2023-03-28T15:52:18.447Z,90649.88
2023-03-28T15:54:48.762Z,90651.59
2023-03-28T15:57:17.657Z,90666.44
2023-03-28T15:59:48.708Z,90680.97
2023-03-28T16:02:24.549Z,90670.16
2023-03-28T16:05:09.726Z,90673.53
2023-03-28T16:07:48.921Z,90703.31
2023-03-28T16:10:25.745Z,90686.28
2023-03-28T16:12:52.438Z,90690.16
2023-03-28T16:15:19.599Z,90709.13
2023-03-28T16:17:47.463Z,90699.75
2023-03-28T16:20:15.874Z,90727.94
2023-03-28T16:22:42.796Z,90729.28
2023-03-28T16:25:09.497Z,90709.84
2023-03-28T16:27:37.919Z,90714.72
2023-03-28T16:30:07.814Z,90704.28
2023-03-28T16:32:34.436Z,90718.72
2023-03-28T16:35:01.042Z,90718.72
2023-03-28T16:37:27.539Z,90728.19
2023-03-28T16:39:54.097Z,90707.72
2023-03-28T16:42:21.058Z,90712.47
2023-03-28T16:44:47.652Z,90721.53
2023-03-28T16:47:15.675Z,90722.81
2023-03-28T16:49:42.272Z,90719.47
2023-03-28T16:52:08.884Z,90705.78
2023-03-28T16:54:35.784Z,90728.84
2023-03-28T16:57:02.677Z,90738.53
2023-03-28T16:59:29.301Z,90714.94
2023-03-28T17:01:56.022Z,90722.81
2023-03-28T17:04:22.677Z,90718.63
2023-03-28T17:06:49.270Z,90732.72
2023-03-28T17:09:16.065Z,90738.00
2023-03-28T17:11:43.011Z,90747.38
2023-03-28T17:14:09.684Z,90741.22
2023-03-28T17:16:40.345Z,90736.94
2023-03-28T17:19:07.786Z,90745.53
2023-03-28T17:21:35.040Z,90754.91
2023-03-28T17:24:02.141Z,90751.03
2023-03-28T17:26:28.736Z,90756.44
2023-03-28T17:28:58.320Z,90772.16
2023-03-28T17:31:25.770Z,90754.81
2023-03-28T17:33:52.549Z,90776.44
2023-03-28T17:36:23.572Z,90778.94
2023-03-28T17:38:51.999Z,90791.13
2023-03-28T17:41:20.175Z,90786.16
2023-03-28T17:43:46.795Z,90784.09
2023-03-28T17:46:13.473Z,90791.56
2023-03-28T17:48:40.794Z,90799.00
2023-03-28T17:51:09.279Z,90788.34
2023-03-28T17:53:36.328Z,90817.94
2023-03-28T17:56:03.295Z,90788.00
2023-03-28T17:58:30.525Z,90800.50
2023-03-28T18:00:57.073Z,90812.31
2023-03-28T18:03:24.305Z,90792.84
2023-03-28T18:05:53.915Z,90809.03
2023-03-28T18:08:23.971Z,90814.84
2023-03-28T18:10:50.685Z,90834.13
2023-03-28T18:13:17.429Z,90826.00
2023-03-28T18:15:44.028Z,90837.56
2023-03-28T18:18:12.882Z,90851.66
2023-03-28T18:20:41.976Z,90838.06
2023-03-28T18:23:08.514Z,90857.50
2023-03-28T18:25:38.427Z,90845.09
2023-03-28T18:28:05.519Z,90872.09
2023-03-28T18:30:32.097Z,90862.84
2023-03-28T18:32:59.043Z,90868.00
2023-03-28T18:35:27.108Z,90865.22
2023-03-28T18:37:53.792Z,90875.75
2023-03-28T18:40:20.860Z,90875.31
2023-03-28T18:42:47.466Z,90880.47
2023-03-28T18:45:14.058Z,90882.38
2023-03-28T18:47:41.416Z,90890.13
2023-03-28T18:50:10.493Z,90895.16
2023-03-28T18:52:37.567Z,90899.25
2023-03-28T18:55:08.049Z,90900.66
2023-03-28T18:57:35.049Z,90904.63
2023-03-28T19:00:02.137Z,90909.81
2023-03-28T19:02:29.094Z,90919.31
2023-03-28T19:04:56.308Z,90913.88
2023-03-28T19:07:23.036Z,90937.09
2023-03-28T19:09:50.170Z,90922.03
2023-03-28T19:12:17.041Z,90916.19
2023-03-28T19:14:43.659Z,90947.19
2023-03-28T19:17:10.177Z,90954.25
2023-03-28T19:19:37.661Z,90959.09
2023-03-28T19:22:06.442Z,90971.16
2023-03-28T19:24:33.566Z,90976.50
2023-03-28T19:27:01.000Z,90970.00
2023-03-28T19:29:30.226Z,90981.50
2023-03-28T19:31:56.870Z,90974.91
2023-03-28T19:34:23.396Z,90984.06
2023-03-28T19:36:50.072Z,90989.41
2023-03-28T19:39:16.795Z,90973.53
2023-03-28T19:41:43.310Z,90991.81
2023-03-28T19:44:09.911Z,90987.91
2023-03-28T19:46:38.788Z,90967.72
2023-03-28T19:49:06.518Z,90974.91
2023-03-28T19:51:33.982Z,90982.59
2023-03-28T19:54:00.772Z,91008.06
2023-03-28T19:56:28.551Z,90982.84
2023-03-28T19:58:56.200Z,91010.84
2023-03-28T20:01:22.819Z,90995.78
2023-03-28T20:03:52.873Z,91010.84
2023-03-28T20:06:20.826Z,91010.84
2023-03-28T20:08:47.368Z,91019.84
2023-03-28T20:11:14.398Z,91020.13
2023-03-28T20:13:41.382Z,91017.00
2023-03-28T20:16:09.261Z,91008.03
2023-03-28T20:18:37.230Z,91012.44
2023-03-28T20:21:10.427Z,91032.63
2023-03-28T20:23:37.184Z,91029.47
2023-03-28T20:26:20.480Z,91020.00
2023-03-28T20:28:50.067Z,91039.75
2023-03-28T20:31:18.664Z,91018.84
2023-03-28T20:33:45.443Z,91029.53
2023-03-28T20:36:12.288Z,91034.09
2023-03-28T20:38:38.967Z,91048.34
2023-03-28T20:41:09.600Z,91022.16
2023-03-28T20:43:40.734Z,91030.50
2023-03-28T20:46:09.778Z,91025.34
2023-03-28T20:48:39.028Z,91017.28
2023-03-28T20:51:17.421Z,91008.84
2023-03-28T20:53:49.614Z,91026.41
2023-03-28T20:56:20.167Z,91032.34
2023-03-28T20:58:47.324Z,91016.56
2023-03-28T21:01:14.811Z,91005.91
2023-03-28T21:03:47.342Z,91010.22
2023-03-28T21:06:15.898Z,91032.41
2023-03-28T21:08:43.371Z,91008.56
2023-03-28T21:11:09.856Z,91025.72
2023-03-28T21:13:36.425Z,90994.59
2023-03-28T21:16:02.970Z,91021.03
2023-03-28T21:18:29.778Z,91039.84
2023-03-28T21:20:56.672Z,91033.31
2023-03-28T21:23:23.360Z,91036.38
2023-03-28T21:25:52.847Z,91042.28
2023-03-28T21:28:19.518Z,91035.75
2023-03-28T21:30:56.110Z,91033.94
2023-03-28T21:33:22.732Z,91051.41
2023-03-28T21:35:52.889Z,91053.25
2023-03-28T21:38:19.511Z,91035.50
2023-03-28T21:40:46.930Z,91032.44
2023-03-28T21:43:13.728Z,91034.75
2023-03-28T21:45:42.990Z,91058.41
2023-03-28T21:48:09.726Z,91066.75
2023-03-28T21:50:38.838Z,91060.09
2023-03-28T21:53:05.985Z,91066.44
2023-03-28T21:55:32.486Z,91078.88
2023-03-28T21:57:59.324Z,91079.03
2023-03-28T22:00:25.986Z,91091.47
2023-03-28T22:02:53.225Z,91043.25
2023-03-28T22:05:28.648Z,91099.22
2023-03-28T22:07:56.601Z,91109.06
2023-03-28T22:10:26.683Z,91108.00
2023-03-28T22:12:53.792Z,91104.19
2023-03-28T22:15:20.400Z,91096.47
2023-03-28T22:17:46.991Z,91125.59
2023-03-28T22:20:14.429Z,91106.31
2023-03-28T22:22:45.177Z,91117.25
2023-03-28T22:25:12.713Z,91129.66
2023-03-28T22:27:39.835Z,91093.13
2023-03-28T22:30:10.383Z,91116.16
2023-03-28T22:32:38.450Z,91135.41
2023-03-28T22:35:05.999Z,91132.22
2023-03-28T22:37:33.221Z,91139.63
2023-03-28T22:39:59.798Z,91148.75
2023-03-28T22:42:26.496Z,91149.03
2023-03-28T22:44:53.066Z,91156.72
2023-03-28T22:47:19.632Z,91140.25
2023-03-28T22:49:46.197Z,91163.28
2023-03-28T22:52:13.717Z,91173.13
2023-03-28T22:54:42.680Z,91160.75
2023-03-28T22:57:09.391Z,91177.63
2023-03-28T22:59:36.655Z,91166.97
2023-03-28T23:02:03.692Z,91176.53
2023-03-28T23:04:30.394Z,91188.50
2023-03-28T23:06:58.716Z,91181.69
2023-03-28T23:09:27.715Z,91177.38
2023-03-28T23:11:55.133Z,91188.03
2023-03-28T23:14:22.219Z,91173.44
2023-03-28T23:16:48.885Z,91185.09
2023-03-28T23:19:16.426Z,91189.38
2023-03-28T23:21:44.007Z,91163.47
2023-03-28T23:24:11.892Z,91175.59
2023-03-28T23:26:38.430Z,91196.69
2023-03-28T23:29:05.415Z,91185.91
2023-03-28T23:31:32.012Z,91182.16
2023-03-28T23:33:58.576Z,91187.75
2023-03-28T23:36:26.211Z,91186.06
2023-03-28T23:39:00.873Z,91164.22
2023-03-28T23:41:27.426Z,91198.00
2023-03-28T23:43:53.919Z,91184.91
2023-03-28T23:46:20.751Z,91188.59
2023-03-28T23:48:47.381Z,91184.03
2023-03-28T23:51:14.191Z,91176.63
2023-03-28T23:53:41.016Z,91187.97
2023-03-28T23:56:08.062Z,91184.34
2023-03-28T23:58:34.585Z,91176.41
